• Join FlightAware (Why Join?)
  • Login
  • US Flag 
11:17AM EDT


 

Airport Tracker/Info


-or-


 

Live Flight TrackerFlight Track Log ✈ SKW6345 ✈ 07-Aug-2013 ✈ KBZN - KSFO

Flight Track Log - Related Links

Times and Time Zones

All times are in EDT time to prevent confusion due to time zone crossing. See the SKW6345 flight status page for this flight to view local times or setup timezone preferences in your user account.

Time Position Orientation Groundspeed Altitude Reporting Facility
EDT Latitude Longitude Course Direction KTS MPH feet Rate Location/Type
03:13PM 45.7547 -111.1211 229° Southwest 191 220 5,400  Level Salt Lake Center
03:14PM 45.7039 -111.1508 202° Southwest 243 280 6,900 1,680 Climbing Salt Lake Center
03:15PM 45.7028 -111.2547 269° West 261 300 8,900 1,800 Climbing Salt Lake Center
03:16PM 45.3635 -111.8418 230° Southwest  Level Estimated
03:16PM 45.7150 -111.3664 279° West 274 315 10,700  Level Salt Lake Center
03:17PM 45.2898 -111.9628 229° Southwest  Level Estimated
03:17PM 45.7294 -111.4883 280° West 290 334 12,200  Level Salt Lake Center
03:18PM 45.2160 -112.0834 229° Southwest  Level Estimated
03:18PM 45.7078 -111.6142 256° West 325 374 13,900  Level Salt Lake Center
03:19PM 45.6547 -111.7250 236° Southwest 336 387 15,200 1,200 Climbing Salt Lake Center
03:20PM 45.6031 -111.8428 238° Southwest 347 399 16,500 1,200 Climbing Salt Lake Center
03:21PM 45.5378 -111.9861 237° Southwest 358 412 17,800 1,140 Climbing Salt Lake Center
03:22PM 45.4822 -112.1081 237° Southwest 364 419 18,900 1,020 Climbing Salt Lake Center
03:23PM 45.4264 -112.2317 237° Southwest 370 426 20,000 960 Climbing Salt Lake Center
03:24PM 45.3622 -112.3731 237° Southwest 378 435 20,900 960 Climbing Salt Lake Center
03:25PM 45.3064 -112.4928 236° Southwest 381 438 22,100 960 Climbing Salt Lake Center
03:26PM 45.2408 -112.6350 237° Southwest 385 443 22,900 660 Climbing Salt Lake Center
03:27PM 45.1847 -112.7575 237° Southwest 388 447 23,500 660 Climbing Salt Lake Center
03:28PM 45.1261 -112.8819 236° Southwest 394 453 24,300 840 Climbing Salt Lake Center
03:29PM 45.0589 -113.0261 237° Southwest 393 452 25,300 720 Climbing Salt Lake Center
03:30PM 45.0022 -113.1492 237° Southwest 392 451 25,900 480 Climbing Salt Lake Center
03:31PM 44.9319 -113.2950 236° Southwest 399 459 26,400 480 Climbing Salt Lake Center
03:32PM 44.8711 -113.4206 236° Southwest 403 464 26,900 240 Climbing Salt Lake Center
03:33PM 44.8025 -113.5697 237° Southwest 406 467 27,000 60 Climbing Salt Lake Center
03:34PM 44.7411 -113.7008 237° Southwest 412 474 27,100 240 Climbing Salt Lake Center
03:35PM 44.6667 -113.8550 236° Southwest 420 483 27,600 480 Climbing Salt Lake Center
03:36PM 44.6017 -113.9878 236° Southwest 425 489 28,100 480 Climbing Salt Lake Center
03:37PM 44.5308 -114.1394 237° Southwest 421 484 28,700 480 Climbing Salt Lake Center
03:38PM 44.4675 -114.2669 235° Southwest 417 480 29,100 480 Climbing Salt Lake Center
03:39PM 44.3944 -114.4158 236° Southwest 416 479 29,700 480 Climbing Salt Lake Center
03:40PM 44.3311 -114.5425 235° Southwest 415 478 30,200 480 Climbing Salt Lake Center
03:41PM 44.2586 -114.6889 235° Southwest 411 473 30,800 480 Climbing Salt Lake Center
03:43PM 44.1958 -114.8133 235° Southwest 410 472 31,200 420 Climbing Salt Lake Center
03:44PM 44.1333 -114.9381 235° Southwest 408 470 31,700 360 Climbing Salt Lake Center
03:45PM 44.0581 -115.0850 235° Southwest 415 478 32,000 120 Climbing Salt Lake Center
03:46PM 43.9961 -115.2092 235° Southwest 408 470 32,000  Level Salt Lake Center
03:48PM 43.8536 -115.4892 235° Southwest 428 493 32,000  Level Salt Lake Center
03:49PM 43.7772 -115.6425 235° Southwest 431 496 32,000  Level Salt Lake Center
03:50PM 43.7083 -115.7747 234° Southwest 439 505 32,000  Level Salt Lake Center
03:51PM 43.6289 -115.9272 234° Southwest 437 503 32,000  Level Salt Lake Center
03:52PM 43.5511 -116.0442 227° Southwest 434 499 32,000  Level Salt Lake Center
03:53PM 43.4689 -116.1589 225° Southwest 438 504 32,000  Level Salt Lake Center
03:54PM 43.3742 -116.2925 226° Southwest 437 503 32,000  Level Salt Lake Center
03:55PM 43.2911 -116.4106 226° Southwest 440 506 32,000  Level Salt Lake Center
03:56PM 43.1964 -116.5428 226° Southwest 434 499 32,000  Level Salt Lake Center
03:57PM 43.1150 -116.6553 225° Southwest 433 498 32,000  Level Salt Lake Center
03:58PM 43.0194 -116.7861 225° Southwest 434 499 32,000  Level Salt Lake Center
03:59PM 42.9383 -116.8981 225° Southwest 432 497 32,000  Level Salt Lake Center
04:00PM 42.8431 -117.0272 225° Southwest 433 498 32,000  Level Salt Lake Center
04:01PM 42.7614 -117.1392 225° Southwest 434 499 32,000  Level Salt Lake Center
04:02PM 42.6797 -117.2503 225° Southwest 433 498 32,000  Level Salt Lake Center
04:03PM 42.5825 -117.3800 225° Southwest 440 506 32,000  Level Salt Lake Center
04:04PM 42.4978 -117.4928 224° Southwest 444 511 32,000  Level Salt Lake Center
04:05PM 42.4011 -117.6253 225° Southwest 442 509 32,000  Level Salt Lake Center
04:06PM 42.3153 -117.7353 223° Southwest 444 511 32,000  Level Salt Lake Center
04:07PM 42.2189 -117.8647 225° Southwest 439 505 32,000  Level Salt Lake Center
04:08PM 42.1325 -117.9789 224° Southwest 437 503 32,000  Level Salt Lake Center
04:09PM 42.0478 -118.0903 224° Southwest 444 511 32,000  Level Salt Lake Center
04:10PM 41.9517 -118.2183 225° Southwest 438 504 32,000  Level Salt Lake Center
04:11PM 41.8672 -118.3272 224° Southwest 439 505 32,000  Level Salt Lake Center
04:12PM 41.7708 -118.4519 224° Southwest 434 499 32,000  Level Salt Lake Center
04:14PM 41.6872 -118.5581 223° Southwest 434 499 32,000  Level Salt Lake Center
04:15PM 41.5906 -118.6844 224° Southwest 435 501 32,000  Level Salt Lake Center
04:16PM 41.5078 -118.7889 223° Southwest 431 496 32,000  Level Salt Lake Center
04:17PM 41.4103 -118.9144 224° Southwest 433 498 32,000  Level Salt Lake Center
04:18PM 41.3261 -119.0208 224° Southwest 434 499 32,000  Level Salt Lake Center
04:19PM 41.2428 -119.1269 224° Southwest 434 499 32,000  Level Salt Lake Center
04:20PM 41.1456 -119.2489 223° Southwest 432 497 32,000  Level Salt Lake Center
04:21PM 41.0625 -119.3539 224° Southwest 432 497 32,000  Level Salt Lake Center
04:22PM 40.9758 -119.4611 223° Southwest 434 499 32,000  Level Salt Lake Center
04:23PM 40.8711 -119.5908 223° Southwest 433 498 32,000  Level Salt Lake Center
04:24PM 40.7842 -119.6994 223° Southwest 431 496 32,000  Level Salt Lake Center
04:25PM 40.6961 -119.8075 223° Southwest 433 498 32,000  Level Salt Lake Center
04:26PM 40.6075 -119.9158 223° Southwest 435 501 32,000  Level Salt Lake Center
04:27PM 40.5194 -120.0233 223° Southwest 434 499 32,000  Level Salt Lake Center
04:28PM 40.4328 -120.1294 223° Southwest 429 494 32,000  Level Salt Lake Center
04:29PM 40.3281 -120.2572 223° Southwest 429 494 32,000  Level Salt Lake Center
04:30PM 40.2403 -120.3639 223° Southwest 430 495 32,000  Level Salt Lake Center
04:31PM 40.1500 -120.4742 223° Southwest 426 490 32,000  Level Oakland Center
04:32PM 40.0456 -120.5992 223° Southwest 425 489 32,000  Level Oakland Center
04:33PM 39.9694 -120.6911 223° Southwest 426 490 32,000  Level Oakland Center
04:34PM 39.8822 -120.7953 223° Southwest 427 491 32,000  Level Oakland Center
04:35PM 39.7947 -120.8969 222° Southwest 424 488 32,000  Level Oakland Center
04:36PM 39.6911 -121.0203 223° Southwest 422 486 32,000  Level Oakland Center
04:37PM 39.6044 -121.1219 222° Southwest 421 484 32,000  Level Oakland Center
04:38PM 39.5231 -121.2175 222° Southwest 421 484 32,000  Level Oakland Center
04:39PM 39.4319 -121.3242 222° Southwest 419 482 32,000  Level Oakland Center
04:40PM 39.3467 -121.4250 222° Southwest 418 481 32,000  Level Oakland Center
04:41PM 39.2600 -121.5242 222° Southwest 418 481 32,000  Level Oakland Center
04:42PM 39.1750 -121.6258 223° Southwest 420 483 32,000  Level Oakland Center
04:44PM 39.0725 -121.7436 222° Southwest 417 480 32,000  Level Oakland Center
04:45PM 38.9872 -121.8403 221° Southwest 414 476 32,000  Level Oakland Center
04:46PM 38.9022 -121.9383 222° Southwest 413 475 32,000  Level Oakland Center
04:47PM 38.8183 -122.0367 222° Southwest 412 474 32,000 -720 Level Oakland Center
04:48PM 38.7189 -122.1108 210° Southwest 416 479 30,600 -2,040 Descending Oakland Center
04:49PM 38.6206 -122.1772 208° Southwest 415 478 27,800 -3,060 Descending Oakland Center
04:50PM 38.5075 -122.2578 209° Southwest 392 451 24,400 -3,060 Descending Oakland Center
04:51PM 38.4131 -122.3214 208° Southwest 383 441 21,600 -2,700 Descending Oakland Center
04:52PM 38.3156 -122.3889 209° Southwest 396 456 18,900 -2,520 Descending Oakland Center
04:53PM 38.2211 -122.4536 208° Southwest 389 448 16,500 -2,400 Descending Oakland Center
04:54PM 38.1311 -122.5156 208° Southwest 372 428 14,000 -2,280 Descending Oakland Center
04:55PM 38.0428 -122.5753 208° Southwest 365 420 11,900 -1,020 Descending Oakland Center
04:56PM 37.9469 -122.6408 208° Southwest 341 392 12,000  Climbing Oakland Center
04:57PM 37.8631 -122.6314 175° South 344 396 12,000  Level Oakland Center
04:57PM 37.8167 -122.5833 141° Southeast 304 350 12,000  Level Northern Cal TRACON
04:58PM 37.7667 -122.5167 133° Southeast 254 292 12,000  Level Northern Cal TRACON
04:59PM 37.7000 -122.4667 149° Southeast 256 295 12,000  Level Northern Cal TRACON
05:00PM 37.6500 -122.4000 133° Southeast 254 292 12,000  Level Northern Cal TRACON
05:01PM 37.6000 -122.3500 142° Southeast 256 295 12,000 -180 Level Northern Cal TRACON
05:02PM 37.5333 -122.3167 158° South 248 285 11,700 -900 Descending Northern Cal TRACON
05:03PM 37.4833 -122.2667 142° Southeast 244 281 10,300 -1,440 Descending Northern Cal TRACON
05:05PM 37.4167 -122.2167 149° Southeast 223 257 8,700 -1,620 Descending Northern Cal TRACON
05:06PM 37.4000 -122.1500 107° East 207 238 7,000 -1,740 Descending Northern Cal TRACON
05:06PM 37.4333 -122.1167 38° Northeast 215 247 5,400 -1,500 Descending Northern Cal TRACON
05:07PM 37.5000 -122.1167 360° North 190 219 4,200 -840 Descending Northern Cal TRACON
05:08PM 37.5333 -122.1667 310° West 184 212 3,800 -720 Descending Northern Cal TRACON
05:09PM 37.5500 -122.2167 293° West 186 214 2,800 -1,080 Descending Northern Cal TRACON
05:10PM 37.5667 -122.2667 293° West 156 180 1,800 -900 Descending Northern Cal TRACON
05:11PM 37.5833 -122.3000 302° West 135 155 1,100 -780 Descending Northern Cal TRACON
05:12PM 37.6167 -122.3500 310° West 131 151 200 -420 Descending Northern Cal TRACON
05:13PM 37.6228 -122.3817 284° West 143 165 300 60 Climbing Oakland Center